Latest Weather Observations for Goulburn Airport

IDN60901

Issued at 5:01 am EST Friday 29 May 2020 (issued every 10 minutes, with the page automatically refreshed every 10 minutes)

About weather observations | Map of Canberra area stations | Latest observations for Canberra area | Other Formats
Station Details ID: 070330 Name: GOULBURN AIRPORT AWS Lat: -34.81 Lon: 149.73 Height: 640.0 m
Data from the previous 72 hours. | See also: Recent months at Goulburn Airport
Date/Time
EST
Temp
°C
App
Temp
°C
Dew
Point
°C
Rel
Hum
%
Delta-T
°C
Wind Press
QNH
hPa
Press
MSL
hPa
Rain since
9am
mm
Dir  Spd
km/h
Gust
km/h
Spd
kts
Gust
kts
29/05:00am 4.2 2.9 4.1 99 0.0 CALM 0 0 0 0 1025.9 1026.2 0.2
29/04:30am 3.8 1.1 3.7 99 0.0 SSW 7 7 4 4 1025.7 1026.0 0.2
29/04:00am 3.5 1.7 3.4 99 0.0 N 2 6 1 3 1025.5 1025.7 0.2
29/03:30am 3.3 1.5 3.2 99 0.0 N 2 6 1 3 1025.3 1025.5 0.2
29/03:00am 2.8 0.5 2.7 99 0.0 E 4 9 2 5 1025.3 1025.5 0.2
29/02:30am 1.9 0.2 1.8 99 0.0 CALM 0 0 0 0 1025.4 1025.6 0.0
29/02:00am 0.5 -1.8 0.4 99 0.0 SE 2 6 1 3 1025.4 1025.6 0.0
29/01:30am 0.4 -2.7 0.3 99 0.0 S 6 9 3 5 1025.3 1025.5 0.0
29/01:00am 0.5 -1.4 0.4 99 0.0 CALM 0 0 0 0 1025.0 1025.2 0.0
29/12:30am 0.6 -2.4 0.5 99 0.0 ESE 6 7 3 4 1025.0 1025.2 0.0
29/12:07am 0.5 -1.8 0.4 99 0.0 ESE 2 7 1 4 1024.9 1025.1 0.0
29/12:00am 1.2 -0.6 1.1 99 0.0 CALM 0 0 0 0 1024.9 1025.1 0.0
 
Date/Time
EST
Temp
°C
App
Temp
°C
Dew
Point
°C
Rel
Hum
%
Delta-T
°C
Wind Press
QNH
hPa
Press
MSL
hPa
Rain since
9am
mm
Dir  Spd
km/h
Gust
km/h
Spd
kts
Gust
kts
28/11:30pm 1.9 -0.6 1.8 99 0.0 ESE 4 6 2 3 1025.0 1025.2 0.0
28/11:00pm 1.4 -1.6 1.0 97 0.2 E 6 9 3 5 1025.0 1025.2 0.0
28/10:50pm 1.8 0.1 1.7 99 0.0 CALM 0 0 0 0 1025.0 1025.2 0.0
28/10:40pm 2.6 1.0 2.3 98 0.1 CALM 0 0 0 0 1024.9 1025.1 0.0
28/10:30pm 2.2 0.5 1.8 97 0.2 CALM 0 0 0 0 1024.9 1025.1 0.0
28/10:14pm 2.9 1.4 2.8 99 0.0 CALM 0 2 0 1 1024.9 1025.1 0.0
28/10:00pm 3.7 1.1 3.4 98 0.1 NNE 6 7 3 4 1024.6 1024.9 0.0
28/09:30pm 3.6 0.8 2.9 95 0.3 NNE 7 7 4 4 1024.5 1024.8 0.0
28/09:00pm 4.7 3.3 3.8 94 0.4 CALM 0 0 0 0 1024.3 1024.6 0.0
28/08:30pm 5.4 2.5 4.5 94 0.4 N 9 11 5 6 1024.1 1024.3 0.0
28/08:00pm 6.6 5.5 5.1 90 0.7 CALM 0 0 0 0 1023.9 1024.1 0.0
28/07:30pm 5.9 4.4 5.0 94 0.4 W 2 6 1 3 1023.6 1023.8 0.0
28/07:00pm 6.2 5.1 5.2 93 0.5 CALM 0 0 0 0 1023.1 1023.4 0.0
28/06:30pm 6.6 5.1 5.1 90 0.7 W 2 7 1 4 1022.6 1022.8 0.0
28/06:00pm 6.6 3.0 4.9 89 0.8 W 13 15 7 8 1022.4 1022.6 0.0
28/05:30pm 7.7 4.6 5.5 86 1.0 W 11 13 6 7 1022.2 1022.4 0.0
28/05:00pm 10.0 7.0 6.0 76 1.9 W 11 13 6 7 1022.1 1022.3 0.0
28/04:30pm 12.5 8.8 6.5 67 3.0 W 15 19 8 10 1021.7 1021.9 0.0
28/04:00pm 13.9 9.8 6.3 60 3.8 W 17 22 9 12 1021.6 1021.7 0.0
28/03:30pm 14.7 10.2 6.3 57 4.2 WSW 19 24 10 13 1021.4 1021.6 0.0
28/03:00pm 14.8 10.2 6.4 57 4.2 W 20 24 11 13 1021.2 1021.4 0.0
28/02:30pm 14.8 9.4 6.4 57 4.2 W 24 30 13 16 1021.2 1021.4 0.0
28/02:00pm 14.8 10.3 7.1 60 3.9 WNW 20 26 11 14 1021.2 1021.4 0.0
28/01:30pm 14.3 10.0 8.0 66 3.2 WNW 20 26 11 14 1021.4 1021.6 0.0
28/01:00pm 14.4 11.0 7.5 63 3.5 WSW 15 20 8 11 1021.6 1021.7 0.0
28/12:30pm 13.8 10.2 6.7 62 3.6 W 15 24 8 13 1021.9 1022.1 0.0
28/12:00pm 13.6 9.8 7.4 66 3.1 W 17 22 9 12 1022.0 1022.2 0.0
28/11:30am 14.1 10.0 7.9 66 3.2 W 19 26 10 14 1022.3 1022.5 0.0
28/11:00am 13.8 9.9 8.8 72 2.6 W 19 24 10 13 1022.6 1022.8 0.0
28/10:30am 13.1 9.6 8.8 75 2.2 W 17 22 9 12 1022.8 1023.0 0.0
28/10:00am 12.2 9.1 9.0 81 1.7 W 15 19 8 10 1023.0 1023.3 0.0
28/09:30am 10.8 8.0 8.7 87 1.1 NW 13 15 7 8 1022.9 1023.1 0.0
28/09:00am 9.1 6.6 8.3 95 0.4 NNW 11 13 6 7 1022.8 1023.0 0.0
28/08:30am 7.7 5.1 7.6 99 0.0 N 11 15 6 8 1022.6 1022.8 0.0
28/08:00am 4.0 2.3 3.9 99 0.0 N 2 9 1 5 1022.4 1022.6 0.0
28/07:46am 3.3 1.5 3.2 99 0.0 N 2 9 1 5 1022.4 1022.6 0.0
28/07:30am 2.3 -0.1 2.2 99 0.0 NNW 4 9 2 5 1022.3 1022.5 0.0
28/07:00am 2.1 0.4 2.0 99 0.0 CALM 0 0 0 0 1022.1 1022.3 0.0
28/06:30am 2.2 0.5 2.1 99 0.0 CALM 0 0 0 0 1021.7 1021.9 0.0
28/06:00am 2.6 -0.1 2.5 99 0.0 NNW 6 7 3 4 1021.3 1021.5 0.0
28/05:30am 3.4 2.0 3.3 99 0.0 CALM 0 6 0 3 1021.0 1021.2 0.0
28/05:00am 2.8 -0.1 2.7 99 0.0 NNW 7 9 4 5 1020.9 1021.1 0.0
28/04:58am 2.9 0.0 2.8 99 0.0 NNW 7 7 4 4 1020.9 1021.1 0.0
28/04:30am 4.2 1.2 4.1 99 0.0 N 9 11 5 6 1020.8 1021.0 0.0
28/04:03am 3.7 0.6 3.6 99 0.0 NNE 9 11 5 6 1020.9 1021.1 0.0
28/04:00am 3.8 0.7 3.7 99 0.0 NNE 9 11 5 6 1020.9 1021.1 0.0
28/03:43am 3.5 0.7 3.4 99 0.0 NNW 7 11 4 6 1021.1 1021.3 0.0
28/03:30am 3.8 0.3 3.7 99 0.0 N 11 11 6 6 1021.0 1021.2 0.0
28/03:03am 4.8 1.5 4.7 99 0.0 N 11 13 6 7 1021.0 1021.2 0.0
28/03:00am 4.4 1.4 4.3 99 0.0 N 9 13 5 7 1021.0 1021.2 0.0
28/02:48am 4.3 1.7 4.2 99 0.0 NNE 7 9 4 5 1021.0 1021.2 0.0
28/02:36am 3.9 1.2 3.8 99 0.0 N 7 11 4 6 1021.1 1021.3 0.0
28/02:30am 3.9 0.8 3.8 99 0.0 N 9 13 5 7 1021.1 1021.3 0.0
28/02:08am 4.3 1.3 4.2 99 0.0 N 9 11 5 6 1021.1 1021.3 0.0
28/02:00am 4.2 1.6 4.1 99 0.0 N 7 9 4 5 1021.0 1021.2 0.0
28/01:30am 4.2 1.2 4.1 99 0.0 NNW 9 11 5 6 1021.0 1021.2 0.0
28/01:22am 4.2 1.2 4.1 99 0.0 N 9 11 5 6 1021.0 1021.2 0.0
28/01:00am 3.5 0.7 3.4 99 0.0 N 7 9 4 5 1021.0 1021.2 0.0
28/12:30am 3.4 0.6 3.3 99 0.0 NW 7 9 4 5 1020.9 1021.1 0.0
28/12:18am 4.4 1.8 4.3 99 0.0 NNE 7 9 4 5 1020.9 1021.1 0.0
28/12:00am 5.3 4.2 5.2 99 0.0 CALM 0 0 0 0 1021.0 1021.2 0.0
 
Date/Time
EST
Temp
°C
App
Temp
°C
Dew
Point
°C
Rel
Hum
%
Delta-T
°C
Wind Press
QNH
hPa
Press
MSL
hPa
Rain since
9am
mm
Dir  Spd
km/h
Gust
km/h
Spd
kts
Gust
kts
27/11:30pm 5.2 4.1 5.1 99 0.0 CALM 0 0 0 0 1021.0 1021.2 0.0
27/11:00pm 6.1 5.2 6.0 99 0.0 CALM 0 0 0 0 1020.9 1021.1 0.0
27/10:30pm 5.0 3.9 4.9 99 0.0 CALM 0 0 0 0 1020.9 1021.1 0.0
27/10:00pm 5.5 4.1 5.4 99 0.0 NNW 2 6 1 3 1021.2 1021.4 0.0
27/09:30pm 4.7 2.3 4.4 98 0.1 ENE 6 9 3 5 1021.2 1021.4 0.0
27/09:27pm 4.4 1.8 4.1 98 0.1 ENE 7 9 4 5 1021.2 1021.4 0.0
27/09:00pm 5.8 4.8 5.5 98 0.1 CALM 0 0 0 0 1021.6 1021.7 0.0
27/08:55pm 5.4 3.9 5.0 97 0.2 NW 2 6 1 3 1021.6 1021.7 0.0
27/08:30pm 6.4 4.7 5.8 96 0.3 NW 4 6 2 3 1021.4 1021.6 0.0
27/08:00pm 7.3 4.6 5.8 90 0.7 NW 9 13 5 7 1021.7 1021.9 0.0
27/07:30pm 8.8 6.6 7.9 94 0.4 NW 9 11 5 6 1021.4 1021.6 0.0
27/07:00pm 8.3 7.7 7.2 93 0.5 CALM 0 0 0 0 1021.1 1021.3 0.0
27/06:30pm 8.7 6.7 7.0 89 0.8 WNW 7 9 4 5 1021.0 1021.2 0.0
27/06:00pm 9.9 7.3 7.7 86 1.1 WNW 11 13 6 7 1020.9 1021.1 0.0
27/05:30pm 10.2 8.0 7.8 85 1.2 WNW 9 11 5 6 1020.8 1021.0 0.0
27/05:00pm 11.1 9.4 8.3 83 1.4 NW 7 9 4 5 1020.7 1020.9 0.0
27/04:30pm 12.1 10.4 8.4 78 1.9 NW 7 11 4 6 1020.5 1020.7 0.0
27/04:00pm 12.4 10.2 7.9 74 2.3 WNW 9 11 5 6 1020.6 1020.8 0.0
27/03:30pm 13.4 11.5 9.1 75 2.3 WNW 9 13 5 7 1020.6 1020.8 0.0
27/03:00pm 13.5 12.2 9.2 75 2.3 WSW 6 9 3 5 1020.7 1020.9 0.0
27/02:30pm 12.7 12.0 8.4 75 2.2 E 2 9 1 5 1020.5 1020.7 0.0
27/02:00pm 11.8 11.4 8.3 79 1.8 CALM 0 6 0 3 1020.9 1021.1 0.0
27/01:30pm 11.5 10.0 8.5 82 1.5 SSE 6 9 3 5 1021.2 1021.4 0.0
27/01:00pm 10.8 10.1 8.4 85 1.2 SE 2 7 1 4 1021.8 1022.0 0.0
27/12:56pm 10.7 9.2 8.3 85 1.2 SSE 6 7 3 4 1021.7 1021.9 0.0
27/12:30pm 10.7 9.9 8.3 85 1.2 S 2 7 1 4 1022.1 1022.3 0.0
27/12:00pm 10.3 8.8 9.1 92 0.6 S 7 9 4 5 1022.6 1022.8 0.0
27/11:30am 9.6 9.4 9.1 97 0.3 CALM 0 6 0 3 1022.9 1023.1 0.0
27/11:00am 9.5 8.6 9.4 99 0.1 S 4 7 2 4 1023.4 1023.6 0.0
27/10:30am 8.6 7.9 8.5 99 0.1 SSE 2 6 1 3 1023.7 1023.9 0.0
27/10:00am 8.6 7.5 8.5 99 0.0 E 4 7 2 4 1024.0 1024.2 0.0
27/09:30am 8.4 7.6 8.3 99 0.0 NE 2 7 1 4 1023.8 1024.0 0.0
27/09:00am 7.9 7.4 7.8 99 0.0 CALM 0 0 0 0 1023.8 1024.0 0.6
27/08:30am 7.6 7.0 7.5 99 0.0 CALM 0 0 0 0 1023.8 1024.0 0.6
27/08:00am 7.3 6.7 7.2 99 0.0 CALM 0 0 0 0 1023.8 1024.0 0.6
27/07:32am 7.4 6.0 7.3 99 0.0 S 4 6 2 3 1023.8 1024.0 0.6
27/07:30am 7.4 5.6 7.3 99 0.0 S 6 6 3 3 1023.8 1024.0 0.6
27/07:00am 7.3 5.5 7.2 99 0.0 S 6 7 3 4 1023.6 1023.8 0.6
27/06:30am 7.3 6.7 7.2 99 0.0 CALM 0 0 0 0 1023.5 1023.7 0.6
27/06:00am 7.2 5.4 7.1 99 0.0 WSW 6 7 3 4 1023.5 1023.7 0.4
27/05:30am 7.5 5.8 7.4 99 0.0 W 6 9 3 5 1023.3 1023.5 0.4
27/05:00am 7.5 5.8 7.4 99 0.0 WSW 6 11 3 6 1023.4 1023.6 0.4
27/04:30am 7.2 6.5 7.1 99 0.0 CALM 0 0 0 0 1023.3 1023.5 0.4
27/04:00am 6.4 4.4 6.3 99 0.0 SSE 6 9 3 5 1023.6 1023.8 0.4
27/03:41am 7.4 6.0 7.3 99 0.0 SW 4 7 2 4 1023.5 1023.7 0.4
27/03:30am 7.0 5.0 6.9 99 0.0 W 7 9 4 5 1023.5 1023.7 0.4
27/03:17am 6.6 4.7 6.5 99 0.0 WSW 6 9 3 5 1023.5 1023.7 0.4
27/03:00am 5.9 4.9 5.8 99 0.0 CALM 0 0 0 0 1023.6 1023.8 0.4
27/02:30am 6.1 5.2 6.0 99 0.0 CALM 0 4 0 2 1023.9 1024.1 0.4
27/02:00am 5.9 4.6 5.8 99 0.0 SSW 2 7 1 4 1024.3 1024.6 0.4
27/01:30am 6.1 3.9 6.0 99 0.0 NW 7 9 4 5 1024.5 1024.8 0.4
27/01:00am 5.2 4.1 5.1 99 0.0 CALM 0 0 0 0 1024.4 1024.7 0.4
27/12:30am 6.8 4.9 6.7 99 0.0 S 6 7 3 4 1024.7 1025.0 0.4
27/12:29am 6.8 4.9 6.7 99 0.0 S 6 7 3 4 1024.7 1025.0 0.4
27/12:23am 6.7 4.6 6.6 99 0.0 S 7 7 4 4 1024.7 1025.0 0.4
27/12:21am 6.8 4.7 6.7 99 0.0 S 7 9 4 5 1024.7 1025.0 0.4
27/12:00am 6.8 4.3 6.7 99 0.0 SSE 9 13 5 7 1024.7 1025.0 0.4
 
Date/Time
EST
Temp
°C
App
Temp
°C
Dew
Point
°C
Rel
Hum
%
Delta-T
°C
Wind Press
QNH
hPa
Press
MSL
hPa
Rain since
9am
mm
Dir  Spd
km/h
Gust
km/h
Spd
kts
Gust
kts
26/11:59pm 6.8 4.3 6.7 99 0.0 SSE 9 13 5 7 1024.7 1025.0 0.4
26/11:32pm 8.6 6.2 8.5 99 0.1 S 11 15 6 8 1024.9 1025.1 0.4
26/11:30pm 8.7 6.3 8.6 99 0.1 S 11 15 6 8 1024.9 1025.1 0.4
26/11:16pm 8.8 8.1 8.7 99 0.1 SE 2 11 1 6 1025.1 1025.3 0.4
26/11:00pm 8.7 8.4 8.6 99 0.1 CALM 0 0 0 0 1025.2 1025.4 0.2
26/10:38pm 8.7 8.4 8.6 99 0.1 CALM 0 0 0 0 1025.2 1025.4 0.2
26/10:30pm 8.6 7.5 8.5 99 0.1 ESE 4 7 2 4 1025.1 1025.3 0.2
26/10:21pm 8.6 6.6 8.5 99 0.1 ESE 9 9 5 5 1025.1 1025.3 0.2
26/10:00pm 8.3 6.6 8.2 99 0.0 ESE 7 7 4 4 1025.2 1025.4 0.0
26/09:30pm 8.5 6.9 8.2 98 0.1 ESE 6 7 3 4 1025.0 1025.2 0.0
26/09:00pm 8.7 7.2 8.6 99 0.1 ESE 6 7 3 4 1025.1 1025.3 0.0
26/08:30pm 8.3 5.4 8.2 99 0.0 SSE 13 13 7 7 1025.1 1025.3 0.0
26/08:00pm 7.9 4.9 7.5 97 0.2 SSE 13 15 7 8 1024.9 1025.1 0.0
26/07:30pm 8.2 5.5 7.3 94 0.4 SE 11 13 6 7 1025.0 1025.2 0.0
26/07:00pm 8.7 6.4 7.6 93 0.5 SE 9 11 5 6 1024.6 1024.9 0.0
26/06:30pm 9.8 7.3 8.2 90 0.8 SE 11 15 6 8 1024.5 1024.8 0.0
26/06:00pm 9.3 7.0 7.4 88 0.9 SE 9 11 5 6 1024.3 1024.6 0.0
26/05:30pm 10.1 7.3 8.4 89 0.9 SE 13 17 7 9 1024.1 1024.3 0.0
26/05:00pm 10.1 7.2 8.2 88 1.0 SE 13 22 7 12 1024.0 1024.2 0.0
26/04:30pm 11.0 8.2 8.4 84 1.3 SE 13 15 7 8 1023.9 1024.1 0.0
26/04:00pm 11.7 7.1 8.0 78 1.9 SE 22 35 12 19 1023.7 1023.9 0.0
26/03:30pm 12.8 8.4 7.5 70 2.7 SE 20 28 11 15 1023.1 1023.4 0.0
26/03:00pm 13.0 8.6 7.2 68 2.9 SE 20 28 11 15 1023.0 1023.3 0.0
26/02:30pm 12.9 7.7 7.1 68 2.9 SE 24 33 13 18 1023.0 1023.3 0.0
26/02:00pm 13.2 7.3 7.6 69 2.8 SSE 28 35 15 19 1023.0 1023.3 0.0
26/01:30pm 13.9 8.6 8.5 70 2.8 SE 26 35 14 19 1023.0 1023.3 0.0
26/01:00pm 13.5 7.9 7.3 66 3.1 SE 26 33 14 18 1023.8 1024.0 0.0
26/12:30pm 12.8 7.6 8.7 76 2.1 SE 26 33 14 18 1024.2 1024.4 0.0
26/12:00pm 13.4 7.4 8.5 72 2.5 SE 30 39 16 21 1024.3 1024.6 0.0
26/11:30am 12.7 7.8 8.4 75 2.2 SE 24 35 13 19 1025.0 1025.2 0.0
26/11:00am 12.2 7.7 9.9 86 1.2 SSE 24 33 13 18 1025.2 1025.4 0.0
26/10:30am 12.1 7.0 10.7 91 0.8 SSE 28 35 15 19 1025.4 1025.6 0.0
26/10:00am 11.3 6.7 11.0 98 0.2 SSE 26 37 14 20 1025.4 1025.6 0.0
26/09:30am 10.2 6.5 10.1 99 0.1 SSE 20 30 11 16 1025.3 1025.5 0.0
26/09:24am 10.0 6.4 9.9 99 0.1 SSE 19 24 10 13 1025.3 1025.5 0.0
26/09:09am 10.0 6.4 9.9 99 0.1 SSE 19 22 10 12 1025.1 1025.3 0.0
26/09:00am 9.8 6.5 9.7 99 0.1 SSE 17 22 9 12 1024.9 1025.1 0.2
26/08:52am 9.7 6.4 9.6 99 0.1 SSE 17 20 9 11 1024.9 1025.1 0.2
26/08:40am 9.6 6.7 9.5 99 0.1 SSE 15 19 8 10 1024.9 1025.1 0.2
26/08:30am 9.3 6.3 9.2 99 0.1 SSE 15 19 8 10 1024.7 1025.0 0.2
26/08:00am 8.8 5.7 8.7 99 0.1 SSE 15 17 8 9 1024.3 1024.6 0.0
26/07:52am 8.8 6.0 8.7 99 0.1 SSE 13 17 7 9 1024.3 1024.6 0.0
26/07:40am 8.7 5.9 8.6 99 0.1 S 13 17 7 9 1024.3 1024.6 0.0
26/07:39am 8.6 5.8 8.5 99 0.1 S 13 17 7 9 1024.3 1024.6 0.0
26/07:30am 8.6 5.8 8.5 99 0.1 S 13 17 7 9 1024.2 1024.4 0.0
26/07:09am 8.2 5.7 8.1 99 0.0 S 11 15 6 8 1024.1 1024.3 0.0
26/07:03am 8.1 5.9 8.0 99 0.0 S 9 15 5 8 1024.0 1024.2 0.0
26/07:00am 8.1 5.9 8.0 99 0.0 S 9 11 5 6 1024.0 1024.2 0.0
26/06:30am 7.8 5.2 7.7 99 0.0 S 11 13 6 7 1023.8 1024.0 0.0
26/06:04am 7.8 5.2 7.7 99 0.0 S 11 13 6 7 1023.8 1024.0 0.0
26/06:00am 7.8 5.2 7.7 99 0.0 S 11 13 6 7 1023.7 1023.9 0.0
26/05:30am 7.5 5.6 7.4 99 0.0 SSW 7 9 4 5 1023.6 1023.8 0.0

Latest Capital City Observations: Canberra | Sydney | Melbourne | Brisbane | Adelaide | Perth | Hobart | Darwin

Other formats

Comma delimited format used in spreadsheet applications
http://www.bom.gov.au/fwo/IDN60903/IDN60903.95716.axf

JavaScript Object Notation format (JSON) in row-major order
http://www.bom.gov.au/fwo/IDN60903/IDN60903.95716.json

Data quality

Most of these data are generated automatically and are frequently updated. Quality checks on data are not normally performed. It is possible for incorrect values to appear. Refer to information at About Latest Weather Observations and please check the disclaimer before using these data.